Sks Tiete — LAKU5 — position and weather

sailwx.info

Track history (hours):
 
Tides and Currents Weather Stations Pressure Air Temp Water Temp Dewpoint Dewpoint Depression Visibility Wind Speed Wind Dir Waves Ship Positions

Sks Tiete

Last reported at 2018-Feb-21 04:49 UTC. Time now 2018-Feb-21 05:24 UTC.
Position N 36°07' W 005°22'.

Length 244 m; draft 9.2 m.

Type: Tanker. MMSI: 257578000.

Date/timePositionNaut miles runAvg speedWind from/ knotsBaromVisibWave heightAir tempDewpointWater temp
2018-Feb-21 04:49N 36°07' W 005°22'0 0.2
2018-Feb-21 04:30N 36°07' W 005°22'0 0.1
2018-Feb-21 03:58N 36°08' W 005°22'0 0.0
2018-Feb-21 03:22N 36°08' W 005°22'0 0.1
2018-Feb-21 02:56N 36°08' W 005°22'0 0.0
2018-Feb-21 02:30N 36°08' W 005°22'0 0.1
2018-Feb-21 01:59N 36°08' W 005°22'0 0.0
2018-Feb-21 01:23N 36°08' W 005°22'0 0.1
2018-Feb-21 00:59N 36°08' W 005°22'0 0.4
2018-Feb-21 00:30N 36°07' W 005°22'0 0.2
2018-Feb-20 23:56N 36°07' W 005°22'0 0.1
2018-Feb-20 23:25N 36°07' W 005°22'0 0.1
2018-Feb-20 22:58N 36°07' W 005°22'0 0.0
2018-Feb-20 22:19N 36°07' W 005°22'0 0.0
2018-Feb-20 21:56N 36°07' W 005°22'0 0.1
2018-Feb-20 21:27N 36°07' W 005°22'0 0.1
2018-Feb-20 20:49N 36°07' W 005°22'0 0.0
2018-Feb-20 20:29N 36°07' W 005°22'0 0.0
2018-Feb-20 20:00N 36°07' W 005°22'0 0.0
2018-Feb-20 19:29N 36°07' W 005°22'0 0.0
2018-Feb-20 18:59N 36°07' W 005°22'0 0.0
2018-Feb-20 18:19N 36°07' W 005°22'0 0.0
2018-Feb-20 17:45N 36°07' W 005°22'0 0.0
2018-Feb-20 17:19N 36°07' W 005°22'0 0.3
2018-Feb-20 16:53N 36°07' W 005°22'1 1.7
2018-Feb-20 16:30N 36°07' W 005°23'3 6.4
2018-Feb-20 16:01N 36°04' W 005°20'510.7
2018-Feb-20 15:30N 36°06' W 005°14'6 9.3
2018-Feb-20 14:53N 36°09' W 005°08'7 0.9
2018-Feb-20 06:53N 36°03' W 005°11'410.5
2018-Feb-20 06:30N 36°01' W 005°16'611.8
2018-Feb-20 06:01N 35°59' W 005°23'612.7
2018-Feb-20 05:31N 35°57' W 005°30'  
2018-Feb-15 12:59N 29°49' W 013°32'3 6.1
2018-Feb-15 12:29N 29°47' W 013°33'40 8.2
2018-Feb-15 07:35N 29°16' W 014°04'0 5.5
2018-Feb-15 07:30N 29°16' W 014°04'3 5.6
2018-Feb-15 06:59N 29°14' W 014°07'3 5.6
2018-Feb-15 06:30N 29°12' W 014°09'3 5.7
2018-Feb-15 06:00N 29°10' W 014°11'3 5.6
2018-Feb-15 05:30N 29°08' W 014°13'4 5.7
2018-Feb-15 04:43N 29°04' W 014°16'1 5.8
2018-Feb-15 04:30N 29°03' W 014°17'3 5.7
2018-Feb-15 04:00N 29°01' W 014°20'3 5.7
2018-Feb-15 03:30N 28°59' W 014°22'3 5.6
2018-Feb-15 03:00N 28°57' W 014°24'3 5.5
2018-Feb-15 02:30N 28°55' W 014°26'3 5.9
2018-Feb-15 02:00N 28°53' W 014°28'3 6.1
2018-Feb-15 01:30N 28°51' W 014°30'3 6.0
2018-Feb-15 01:00N 28°48' W 014°33'5 5.9
2018-Feb-15 00:11N 28°45' W 014°36'1 5.9
2018-Feb-15 00:01N 28°44' W 014°37'3 5.8
2018-Feb-14 23:30N 28°42' W 014°39'3 5.8
2018-Feb-14 23:00N 28°39' W 014°42'3 5.8
2018-Feb-14 22:30N 28°37' W 014°44'3 5.8
2018-Feb-14 22:00N 28°35' W 014°46'3 5.7
2018-Feb-14 21:30N 28°33' W 014°48'3 5.9
2018-Feb-14 21:00N 28°31' W 014°50'3 6.2
2018-Feb-14 20:30N 28°29' W 014°53'3 6.6
2018-Feb-14 20:00N 28°27' W 014°56'3 6.7
2018-Feb-14 19:30N 28°25' W 014°59'3 6.5
2018-Feb-14 19:00N 28°22' W 015°01'3 6.5
2018-Feb-14 18:29N 28°20' W 015°04'3 6.3
2018-Feb-14 18:00N 28°18' W 015°07'3 6.4
2018-Feb-14 17:30N 28°16' W 015°10'3 6.6
2018-Feb-14 17:00N 28°14' W 015°12'2 4.2
2018-Feb-14 16:30N 28°12' W 015°14'2 3.6
2018-Feb-14 16:00N 28°11' W 015°16'3 5.3
2018-Feb-14 15:30N 28°10' W 015°18'3 5.8
2018-Feb-14 15:00N 28°08' W 015°21'1 1.1
2018-Feb-14 14:29N 28°08' W 015°21'1 1.7
2018-Feb-14 14:00N 28°08' W 015°20'510.8
2018-Feb-14 13:30N 28°07' W 015°14'713.1
2018-Feb-14 13:00N 28°06' W 015°06'611.9
2018-Feb-14 12:30N 28°04' W 014°60'4 8.2
2018-Feb-14 12:00N 27°60' W 014°59'5 9.9
2018-Feb-14 11:30N 27°55' W 015°01'3 6.6
2018-Feb-14 11:00N 27°52' W 015°03'3 6.4
2018-Feb-14 10:29N 27°49' W 015°04'3 6.4
2018-Feb-14 10:00N 27°47' W 015°07'3 6.3
2018-Feb-14 09:30N 27°45' W 015°10'3 5.9
2018-Feb-14 09:00N 27°44' W 015°13'3 5.8
2018-Feb-14 08:30N 27°41' W 015°15'14410.0
2018-Feb-13 18:03N 25°41' W 016°44'010.1
2018-Feb-13 18:00N 25°41' W 016°45'5 9.9
2018-Feb-13 17:30N 25°37' W 016°48'510.3
2018-Feb-13 17:00N 25°33' W 016°51'16 8.4
2018-Feb-13 15:03N 25°19' W 017°00'0 6.0
2018-Feb-13 15:00N 25°19' W 017°01'  
Track history (hours):
 
Tides and Currents Weather Stations Pressure Air Temp Water Temp Dewpoint Dewpoint Depression Visibility Wind Speed Wind Dir Waves Ship Positions

Sks Tiete

Last reported at 2018-Feb-21 04:49 UTC. Time now 2018-Feb-21 05:24 UTC.
Position N 36°07' W 005°22'.

Length 244 m; draft 9.2 m.

Type: Tanker. MMSI: 257578000.

Date/timePositionNaut miles runAvg speedWind from/ knotsBaromVisibWave heightAir tempDewpointWater temp
2018-Feb-21 04:49N 36°07' W 005°22'0 0.2
2018-Feb-21 04:30N 36°07' W 005°22'0 0.1
2018-Feb-21 03:58N 36°08' W 005°22'0 0.0
2018-Feb-21 03:22N 36°08' W 005°22'0 0.1
2018-Feb-21 02:56N 36°08' W 005°22'0 0.0
2018-Feb-21 02:30N 36°08' W 005°22'0 0.1
2018-Feb-21 01:59N 36°08' W 005°22'0 0.0
2018-Feb-21 01:23N 36°08' W 005°22'0 0.1
2018-Feb-21 00:59N 36°08' W 005°22'0 0.4
2018-Feb-21 00:30N 36°07' W 005°22'0 0.2
2018-Feb-20 23:56N 36°07' W 005°22'0 0.1
2018-Feb-20 23:25N 36°07' W 005°22'0 0.1
2018-Feb-20 22:58N 36°07' W 005°22'0 0.0
2018-Feb-20 22:19N 36°07' W 005°22'0 0.0
2018-Feb-20 21:56N 36°07' W 005°22'0 0.1
2018-Feb-20 21:27N 36°07' W 005°22'0 0.1
2018-Feb-20 20:49N 36°07' W 005°22'0 0.0
2018-Feb-20 20:29N 36°07' W 005°22'0 0.0
2018-Feb-20 20:00N 36°07' W 005°22'0 0.0
2018-Feb-20 19:29N 36°07' W 005°22'0 0.0
2018-Feb-20 18:59N 36°07' W 005°22'0 0.0
2018-Feb-20 18:19N 36°07' W 005°22'0 0.0
2018-Feb-20 17:45N 36°07' W 005°22'0 0.0
2018-Feb-20 17:19N 36°07' W 005°22'0 0.3
2018-Feb-20 16:53N 36°07' W 005°22'1 1.7
2018-Feb-20 16:30N 36°07' W 005°23'3 6.4
2018-Feb-20 16:01N 36°04' W 005°20'510.7
2018-Feb-20 15:30N 36°06' W 005°14'6 9.3
2018-Feb-20 14:53N 36°09' W 005°08'7 0.9
2018-Feb-20 06:53N 36°03' W 005°11'410.5
2018-Feb-20 06:30N 36°01' W 005°16'611.8
2018-Feb-20 06:01N 35°59' W 005°23'612.7
2018-Feb-20 05:31N 35°57' W 005°30'  
2018-Feb-15 12:59N 29°49' W 013°32'3 6.1
2018-Feb-15 12:29N 29°47' W 013°33'40 8.2
2018-Feb-15 07:35N 29°16' W 014°04'0 5.5
2018-Feb-15 07:30N 29°16' W 014°04'3 5.6
2018-Feb-15 06:59N 29°14' W 014°07'3 5.6
2018-Feb-15 06:30N 29°12' W 014°09'3 5.7
2018-Feb-15 06:00N 29°10' W 014°11'3 5.6
2018-Feb-15 05:30N 29°08' W 014°13'4 5.7
2018-Feb-15 04:43N 29°04' W 014°16'1 5.8
2018-Feb-15 04:30N 29°03' W 014°17'3 5.7
2018-Feb-15 04:00N 29°01' W 014°20'3 5.7
2018-Feb-15 03:30N 28°59' W 014°22'3 5.6
2018-Feb-15 03:00N 28°57' W 014°24'3 5.5
2018-Feb-15 02:30N 28°55' W 014°26'3 5.9
2018-Feb-15 02:00N 28°53' W 014°28'3 6.1
2018-Feb-15 01:30N 28°51' W 014°30'3 6.0
2018-Feb-15 01:00N 28°48' W 014°33'5 5.9
2018-Feb-15 00:11N 28°45' W 014°36'1 5.9
2018-Feb-15 00:01N 28°44' W 014°37'3 5.8
2018-Feb-14 23:30N 28°42' W 014°39'3 5.8
2018-Feb-14 23:00N 28°39' W 014°42'3 5.8
2018-Feb-14 22:30N 28°37' W 014°44'3 5.8
2018-Feb-14 22:00N 28°35' W 014°46'3 5.7
2018-Feb-14 21:30N 28°33' W 014°48'3 5.9
2018-Feb-14 21:00N 28°31' W 014°50'3 6.2
2018-Feb-14 20:30N 28°29' W 014°53'3 6.6
2018-Feb-14 20:00N 28°27' W 014°56'3 6.7
2018-Feb-14 19:30N 28°25' W 014°59'3 6.5
2018-Feb-14 19:00N 28°22' W 015°01'3 6.5
2018-Feb-14 18:29N 28°20' W 015°04'3 6.3
2018-Feb-14 18:00N 28°18' W 015°07'3 6.4
2018-Feb-14 17:30N 28°16' W 015°10'3 6.6
2018-Feb-14 17:00N 28°14' W 015°12'2 4.2
2018-Feb-14 16:30N 28°12' W 015°14'2 3.6
2018-Feb-14 16:00N 28°11' W 015°16'3 5.3
2018-Feb-14 15:30N 28°10' W 015°18'3 5.8
2018-Feb-14 15:00N 28°08' W 015°21'1 1.1
2018-Feb-14 14:29N 28°08' W 015°21'1 1.7
2018-Feb-14 14:00N 28°08' W 015°20'510.8
2018-Feb-14 13:30N 28°07' W 015°14'713.1
2018-Feb-14 13:00N 28°06' W 015°06'611.9
2018-Feb-14 12:30N 28°04' W 014°60'4 8.2
2018-Feb-14 12:00N 27°60' W 014°59'5 9.9
2018-Feb-14 11:30N 27°55' W 015°01'3 6.6
2018-Feb-14 11:00N 27°52' W 015°03'3 6.4
2018-Feb-14 10:29N 27°49' W 015°04'3 6.4
2018-Feb-14 10:00N 27°47' W 015°07'3 6.3
2018-Feb-14 09:30N 27°45' W 015°10'3 5.9
2018-Feb-14 09:00N 27°44' W 015°13'3 5.8
2018-Feb-14 08:30N 27°41' W 015°15'14410.0
2018-Feb-13 18:03N 25°41' W 016°44'010.1
2018-Feb-13 18:00N 25°41' W 016°45'5 9.9
2018-Feb-13 17:30N 25°37' W 016°48'510.3
2018-Feb-13 17:00N 25°33' W 016°51'16 8.4
2018-Feb-13 15:03N 25°19' W 017°00'0 6.0
2018-Feb-13 15:00N 25°19' W 017°01'  

Dump ship's entire track history